sensor_id;sensor_type;location;lat;lon;timestamp;temperature;humidity
14252;DHT22;7210;51.502;10.722;2022-11-13T00:01:28;0.20;99.90
14252;DHT22;7210;51.502;10.722;2022-11-13T00:04:14;0.10;99.90
14252;DHT22;7210;51.502;10.722;2022-11-13T00:06:59;0.10;99.90
14252;DHT22;7210;51.502;10.722;2022-11-13T00:10:03;0.10;99.90
14252;DHT22;7210;51.502;10.722;2022-11-13T00:12:57;0.10;99.90
14252;DHT22;7210;51.502;10.722;2022-11-13T00:15:55;0.20;99.90
14252;DHT22;7210;51.502;10.722;2022-11-13T00:18:47;0.10;99.90
14252;DHT22;7210;51.502;10.722;2022-11-13T00:21:39;0.10;99.90
14252;DHT22;7210;51.502;10.722;2022-11-13T00:24:27;0.00;99.90
14252;DHT22;7210;51.502;10.722;2022-11-13T00:27:13;-0.10;99.90
14252;DHT22;7210;51.502;10.722;2022-11-13T00:29:59;-0.10;99.90
14252;DHT22;7210;51.502;10.722;2022-11-13T00:32:57;-0.20;99.90
14252;DHT22;7210;51.502;10.722;2022-11-13T00:35:44;-0.30;99.90
14252;DHT22;7210;51.502;10.722;2022-11-13T00:38:50;-0.30;99.90
14252;DHT22;7210;51.502;10.722;2022-11-13T00:41:37;-0.40;99.90
14252;DHT22;7210;51.502;10.722;2022-11-13T00:44:27;-0.40;99.90
14252;DHT22;7210;51.502;10.722;2022-11-13T00:47:15;-0.40;99.90
14252;DHT22;7210;51.502;10.722;2022-11-13T00:50:15;-0.40;99.90
14252;DHT22;7210;51.502;10.722;2022-11-13T00:53:04;-0.40;99.90
14252;DHT22;7210;51.502;10.722;2022-11-13T00:56:09;-0.40;99.90
14252;DHT22;7210;51.502;10.722;2022-11-13T00:59:14;-0.50;99.90
14252;DHT22;7210;51.502;10.722;2022-11-13T01:02:26;-0.50;99.90
14252;DHT22;7210;51.502;10.722;2022-11-13T01:05:13;-0.50;99.90
14252;DHT22;7210;51.502;10.722;2022-11-13T01:07:58;-0.60;99.90
14252;DHT22;7210;51.502;10.722;2022-11-13T01:10:47;-0.60;99.90
14252;DHT22;7210;51.502;10.722;2022-11-13T01:13:46;-0.60;99.90
14252;DHT22;7210;51.502;10.722;2022-11-13T01:16:45;-0.60;99.90
14252;DHT22;7210;51.502;10.722;2022-11-13T01:19:31;-0.70;99.90
14252;DHT22;7210;51.502;10.722;2022-11-13T01:22:21;-0.70;99.90
14252;DHT22;7210;51.502;10.722;2022-11-13T01:25:07;-0.80;99.90
14252;DHT22;7210;51.502;10.722;2022-11-13T01:27:55;-0.80;99.90
14252;DHT22;7210;51.502;10.722;2022-11-13T01:30:41;-0.80;99.90
14252;DHT22;7210;51.502;10.722;2022-11-13T01:33:28;-0.70;99.90
14252;DHT22;7210;51.502;10.722;2022-11-13T01:36:15;-0.70;99.90
14252;DHT22;7210;51.502;10.722;2022-11-13T01:42:36;-0.60;99.90
14252;DHT22;7210;51.502;10.722;2022-11-13T01:49:25;-0.60;99.90
14252;DHT22;7210;51.502;10.722;2022-11-13T01:52:29;-0.60;99.90
14252;DHT22;7210;51.502;10.722;2022-11-13T01:55:38;-0.70;99.90
14252;DHT22;7210;51.502;10.722;2022-11-13T01:58:25;-0.80;99.90
14252;DHT22;7210;51.502;10.722;2022-11-13T02:01:11;-0.80;99.90
14252;DHT22;7210;51.502;10.722;2022-11-13T02:04:03;-0.90;99.90
14252;DHT22;7210;51.502;10.722;2022-11-13T02:06:54;-0.90;99.90
14252;DHT22;7210;51.502;10.722;2022-11-13T02:09:44;-1.00;99.90
14252;DHT22;7210;51.502;10.722;2022-11-13T02:12:34;-1.00;99.90
14252;DHT22;7210;51.502;10.722;2022-11-13T02:15:44;-1.00;99.90
14252;DHT22;7210;51.502;10.722;2022-11-13T02:18:32;-1.10;99.90
14252;DHT22;7210;51.502;10.722;2022-11-13T02:21:37;-1.10;99.90
14252;DHT22;7210;51.502;10.722;2022-11-13T02:24:58;-1.00;99.90
14252;DHT22;7210;51.502;10.722;2022-11-13T02:27:47;-1.00;99.90
14252;DHT22;7210;51.502;10.722;2022-11-13T02:30:35;-1.10;99.90
14252;DHT22;7210;51.502;10.722;2022-11-13T02:33:27;-1.00;99.90
14252;DHT22;7210;51.502;10.722;2022-11-13T02:36:15;-1.00;99.90
14252;DHT22;7210;51.502;10.722;2022-11-13T02:39:08;-1.00;99.90
14252;DHT22;7210;51.502;10.722;2022-11-13T02:42:04;-1.10;99.90
14252;DHT22;7210;51.502;10.722;2022-11-13T02:44:51;-1.20;99.90
14252;DHT22;7210;51.502;10.722;2022-11-13T02:47:51;-1.20;99.90
14252;DHT22;7210;51.502;10.722;2022-11-13T02:50:37;-1.20;99.90
14252;DHT22;7210;51.502;10.722;2022-11-13T02:57:31;-1.20;99.90
14252;DHT22;7210;51.502;10.722;2022-11-13T03:00:17;-1.30;99.90
14252;DHT22;7210;51.502;10.722;2022-11-13T03:03:03;-1.30;99.90
14252;DHT22;7210;51.502;10.722;2022-11-13T03:05:51;-1.40;99.90
14252;DHT22;7210;51.502;10.722;2022-11-13T03:08:39;-1.40;99.90
14252;DHT22;7210;51.502;10.722;2022-11-13T03:11:27;-1.40;99.90
14252;DHT22;7210;51.502;10.722;2022-11-13T03:14:16;-1.40;99.90
14252;DHT22;7210;51.502;10.722;2022-11-13T03:17:03;-1.40;99.90
14252;DHT22;7210;51.502;10.722;2022-11-13T03:19:49;-1.40;99.90
14252;DHT22;7210;51.502;10.722;2022-11-13T03:22:34;-1.40;99.90
14252;DHT22;7210;51.502;10.722;2022-11-13T03:25:21;-1.40;99.90
14252;DHT22;7210;51.502;10.722;2022-11-13T03:28:26;-1.30;99.90
14252;DHT22;7210;51.502;10.722;2022-11-13T03:31:34;-1.30;99.90
14252;DHT22;7210;51.502;10.722;2022-11-13T03:34:19;-1.30;99.90
14252;DHT22;7210;51.502;10.722;2022-11-13T03:37:05;-1.40;99.90
14252;DHT22;7210;51.502;10.722;2022-11-13T03:39:51;-1.40;99.90
14252;DHT22;7210;51.502;10.722;2022-11-13T03:42:37;-1.30;99.90
14252;DHT22;7210;51.502;10.722;2022-11-13T03:45:23;-1.40;99.90
14252;DHT22;7210;51.502;10.722;2022-11-13T03:48:10;-1.40;99.90
14252;DHT22;7210;51.502;10.722;2022-11-13T03:50:57;-1.40;99.90
14252;DHT22;7210;51.502;10.722;2022-11-13T03:53:51;-1.40;99.90
14252;DHT22;7210;51.502;10.722;2022-11-13T03:56:39;-1.50;99.90
14252;DHT22;7210;51.502;10.722;2022-11-13T03:59:27;-1.50;99.90
14252;DHT22;7210;51.502;10.722;2022-11-13T04:02:15;-1.50;99.90
14252;DHT22;7210;51.502;10.722;2022-11-13T04:05:03;-1.60;99.90
14252;DHT22;7210;51.502;10.722;2022-11-13T04:07:49;-1.60;99.90
14252;DHT22;7210;51.502;10.722;2022-11-13T04:10:35;-1.60;99.90
14252;DHT22;7210;51.502;10.722;2022-11-13T04:13:27;-1.60;99.90
14252;DHT22;7210;51.502;10.722;2022-11-13T04:16:15;-1.70;99.90
14252;DHT22;7210;51.502;10.722;2022-11-13T04:19:01;-1.70;99.90
14252;DHT22;7210;51.502;10.722;2022-11-13T04:21:48;-1.70;99.90
14252;DHT22;7210;51.502;10.722;2022-11-13T04:24:34;-1.70;99.90
14252;DHT22;7210;51.502;10.722;2022-11-13T04:27:21;-1.70;99.90
14252;DHT22;7210;51.502;10.722;2022-11-13T04:30:08;-1.70;99.90
14252;DHT22;7210;51.502;10.722;2022-11-13T04:32:57;-1.70;99.90
14252;DHT22;7210;51.502;10.722;2022-11-13T04:35:45;-1.70;99.90
14252;DHT22;7210;51.502;10.722;2022-11-13T04:38:52;-1.60;99.90
14252;DHT22;7210;51.502;10.722;2022-11-13T04:41:37;-1.70;99.90
14252;DHT22;7210;51.502;10.722;2022-11-13T04:44:51;-1.80;99.90
14252;DHT22;7210;51.502;10.722;2022-11-13T04:47:39;-1.70;99.90
14252;DHT22;7210;51.502;10.722;2022-11-13T04:50:25;-1.70;99.90
14252;DHT22;7210;51.502;10.722;2022-11-13T04:53:11;-1.70;99.90
14252;DHT22;7210;51.502;10.722;2022-11-13T04:55:58;-1.60;99.90
14252;DHT22;7210;51.502;10.722;2022-11-13T04:58:43;-1.60;99.90
14252;DHT22;7210;51.502;10.722;2022-11-13T05:01:29;-1.60;99.90
14252;DHT22;7210;51.502;10.722;2022-11-13T05:04:33;-1.60;99.90
14252;DHT22;7210;51.502;10.722;2022-11-13T05:07:19;-1.80;99.90
14252;DHT22;7210;51.502;10.722;2022-11-13T05:10:09;-1.90;99.90
14252;DHT22;7210;51.502;10.722;2022-11-13T05:12:56;-1.90;99.90
14252;DHT22;7210;51.502;10.722;2022-11-13T05:19:15;-2.00;99.90
14252;DHT22;7210;51.502;10.722;2022-11-13T05:22:01;-2.00;99.90
14252;DHT22;7210;51.502;10.722;2022-11-13T05:24:57;-2.00;99.90
14252;DHT22;7210;51.502;10.722;2022-11-13T05:28:04;-1.90;99.90
14252;DHT22;7210;51.502;10.722;2022-11-13T05:34:27;-2.00;99.90
14252;DHT22;7210;51.502;10.722;2022-11-13T05:37:13;-2.00;99.90
14252;DHT22;7210;51.502;10.722;2022-11-13T05:40:15;-2.10;99.90
14252;DHT22;7210;51.502;10.722;2022-11-13T05:43:16;-2.10;99.90
14252;DHT22;7210;51.502;10.722;2022-11-13T05:46:04;-2.10;99.90
14252;DHT22;7210;51.502;10.722;2022-11-13T05:48:52;-2.10;99.90
14252;DHT22;7210;51.502;10.722;2022-11-13T05:51:45;-2.10;99.90
14252;DHT22;7210;51.502;10.722;2022-11-13T05:54:45;-2.20;99.90
14252;DHT22;7210;51.502;10.722;2022-11-13T05:57:31;-2.20;99.90
14252;DHT22;7210;51.502;10.722;2022-11-13T06:00:22;-2.20;99.90
14252;DHT22;7210;51.502;10.722;2022-11-13T06:03:08;-2.20;99.90
14252;DHT22;7210;51.502;10.722;2022-11-13T06:05:54;-2.10;99.90
14252;DHT22;7210;51.502;10.722;2022-11-13T06:08:40;-2.10;99.90
14252;DHT22;7210;51.502;10.722;2022-11-13T06:11:28;-2.20;99.90
14252;DHT22;7210;51.502;10.722;2022-11-13T06:14:15;-2.20;99.90
14252;DHT22;7210;51.502;10.722;2022-11-13T06:17:02;-2.00;99.90
14252;DHT22;7210;51.502;10.722;2022-11-13T06:19:48;-2.00;99.90
14252;DHT22;7210;51.502;10.722;2022-11-13T06:22:39;-2.00;99.90
14252;DHT22;7210;51.502;10.722;2022-11-13T06:25:24;-2.00;99.90
14252;DHT22;7210;51.502;10.722;2022-11-13T06:28:12;-2.00;99.90
14252;DHT22;7210;51.502;10.722;2022-11-13T06:34:31;-2.10;99.90
14252;DHT22;7210;51.502;10.722;2022-11-13T06:37:21;-2.20;99.90
14252;DHT22;7210;51.502;10.722;2022-11-13T06:40:27;-2.20;99.90
14252;DHT22;7210;51.502;10.722;2022-11-13T06:43:21;-2.20;99.90
14252;DHT22;7210;51.502;10.722;2022-11-13T06:46:12;-2.20;99.90
14252;DHT22;7210;51.502;10.722;2022-11-13T06:49:03;-2.30;99.90
14252;DHT22;7210;51.502;10.722;2022-11-13T06:51:50;-2.30;99.90
14252;DHT22;7210;51.502;10.722;2022-11-13T06:54:39;-2.30;99.90
14252;DHT22;7210;51.502;10.722;2022-11-13T06:57:25;-2.30;99.90
14252;DHT22;7210;51.502;10.722;2022-11-13T07:00:12;-2.30;99.90
14252;DHT22;7210;51.502;10.722;2022-11-13T07:03:16;-2.20;99.90
14252;DHT22;7210;51.502;10.722;2022-11-13T07:06:12;-2.10;99.90
14252;DHT22;7210;51.502;10.722;2022-11-13T07:09:00;-2.00;99.90
14252;DHT22;7210;51.502;10.722;2022-11-13T07:11:57;-2.10;99.90
14252;DHT22;7210;51.502;10.722;2022-11-13T07:14:45;-2.10;99.90
14252;DHT22;7210;51.502;10.722;2022-11-13T07:17:30;-2.10;99.90
14252;DHT22;7210;51.502;10.722;2022-11-13T07:20:27;-1.90;99.90
14252;DHT22;7210;51.502;10.722;2022-11-13T07:23:13;-1.90;99.90
14252;DHT22;7210;51.502;10.722;2022-11-13T07:26:00;-1.90;99.90
14252;DHT22;7210;51.502;10.722;2022-11-13T07:28:46;-1.80;99.90
14252;DHT22;7210;51.502;10.722;2022-11-13T07:31:39;-1.70;99.90
14252;DHT22;7210;51.502;10.722;2022-11-13T07:34:26;-1.60;99.90
14252;DHT22;7210;51.502;10.722;2022-11-13T07:37:15;-1.50;99.90
14252;DHT22;7210;51.502;10.722;2022-11-13T07:40:01;-1.50;99.90
14252;DHT22;7210;51.502;10.722;2022-11-13T07:42:55;-1.50;99.90
14252;DHT22;7210;51.502;10.722;2022-11-13T07:45:43;-1.40;99.90
14252;DHT22;7210;51.502;10.722;2022-11-13T07:48:45;-1.40;99.90
14252;DHT22;7210;51.502;10.722;2022-11-13T07:51:45;-1.30;99.90
14252;DHT22;7210;51.502;10.722;2022-11-13T07:54:45;-1.30;99.90
14252;DHT22;7210;51.502;10.722;2022-11-13T07:57:58;-1.20;99.90
14252;DHT22;7210;51.502;10.722;2022-11-13T08:00:44;-1.10;99.90
14252;DHT22;7210;51.502;10.722;2022-11-13T08:03:30;-1.00;99.90
14252;DHT22;7210;51.502;10.722;2022-11-13T08:06:17;-0.80;99.90
14252;DHT22;7210;51.502;10.722;2022-11-13T08:09:03;-0.70;99.90
14252;DHT22;7210;51.502;10.722;2022-11-13T08:11:49;-0.60;99.90
14252;DHT22;7210;51.502;10.722;2022-11-13T08:14:40;0.20;99.90
14252;DHT22;7210;51.502;10.722;2022-11-13T08:17:27;0.60;99.90
14252;DHT22;7210;51.502;10.722;2022-11-13T08:20:12;0.80;99.90
14252;DHT22;7210;51.502;10.722;2022-11-13T08:23:03;1.20;99.90
14252;DHT22;7210;51.502;10.722;2022-11-13T08:25:50;1.50;99.90
14252;DHT22;7210;51.502;10.722;2022-11-13T08:28:39;1.80;99.90
14252;DHT22;7210;51.502;10.722;2022-11-13T08:31:27;2.20;99.90
14252;DHT22;7210;51.502;10.722;2022-11-13T08:34:12;2.40;99.90
14252;DHT22;7210;51.502;10.722;2022-11-13T08:36:58;2.70;99.90
14252;DHT22;7210;51.502;10.722;2022-11-13T08:39:44;2.90;99.90
14252;DHT22;7210;51.502;10.722;2022-11-13T08:42:39;3.10;99.90
14252;DHT22;7210;51.502;10.722;2022-11-13T08:45:25;3.20;99.90
14252;DHT22;7210;51.502;10.722;2022-11-13T08:48:16;3.20;99.90
14252;DHT22;7210;51.502;10.722;2022-11-13T08:51:03;3.40;99.90
14252;DHT22;7210;51.502;10.722;2022-11-13T08:53:50;3.50;99.90
14252;DHT22;7210;51.502;10.722;2022-11-13T08:56:36;3.70;99.90
14252;DHT22;7210;51.502;10.722;2022-11-13T08:59:22;3.80;99.90
14252;DHT22;7210;51.502;10.722;2022-11-13T09:02:12;3.70;99.90
14252;DHT22;7210;51.502;10.722;2022-11-13T09:05:01;3.80;99.90
14252;DHT22;7210;51.502;10.722;2022-11-13T09:07:49;3.80;99.90
14252;DHT22;7210;51.502;10.722;2022-11-13T09:10:45;3.70;99.90
14252;DHT22;7210;51.502;10.722;2022-11-13T09:13:33;3.70;99.90
14252;DHT22;7210;51.502;10.722;2022-11-13T09:16:21;3.50;99.90
14252;DHT22;7210;51.502;10.722;2022-11-13T09:19:15;3.50;99.90
14252;DHT22;7210;51.502;10.722;2022-11-13T09:22:02;3.50;99.90
14252;DHT22;7210;51.502;10.722;2022-11-13T09:24:51;3.50;99.90
14252;DHT22;7210;51.502;10.722;2022-11-13T09:27:39;3.60;99.90
14252;DHT22;7210;51.502;10.722;2022-11-13T09:30:26;3.80;99.90
14252;DHT22;7210;51.502;10.722;2022-11-13T09:33:14;4.00;99.90
14252;DHT22;7210;51.502;10.722;2022-11-13T09:36:09;4.30;99.90
14252;DHT22;7210;51.502;10.722;2022-11-13T09:38:59;4.20;99.90
14252;DHT22;7210;51.502;10.722;2022-11-13T09:41:48;4.20;99.90
14252;DHT22;7210;51.502;10.722;2022-11-13T09:44:42;4.20;99.90
14252;DHT22;7210;51.502;10.722;2022-11-13T09:47:35;4.30;99.90
14252;DHT22;7210;51.502;10.722;2022-11-13T09:50:33;4.30;99.90
14252;DHT22;7210;51.502;10.722;2022-11-13T09:53:19;4.30;99.90
14252;DHT22;7210;51.502;10.722;2022-11-13T09:56:21;4.40;99.90
14252;DHT22;7210;51.502;10.722;2022-11-13T09:59:15;4.60;99.90
14252;DHT22;7210;51.502;10.722;2022-11-13T10:02:16;4.80;99.90
14252;DHT22;7210;51.502;10.722;2022-11-13T10:05:21;4.90;99.90
14252;DHT22;7210;51.502;10.722;2022-11-13T10:08:14;5.20;99.90
14252;DHT22;7210;51.502;10.722;2022-11-13T10:11:10;5.40;99.90
14252;DHT22;7210;51.502;10.722;2022-11-13T10:14:29;5.60;99.90
14252;DHT22;7210;51.502;10.722;2022-11-13T10:17:25;5.70;99.90
14252;DHT22;7210;51.502;10.722;2022-11-13T10:20:21;5.70;99.90
14252;DHT22;7210;51.502;10.722;2022-11-13T10:23:15;5.80;99.90
14252;DHT22;7210;51.502;10.722;2022-11-13T10:26:16;5.90;99.90
14252;DHT22;7210;51.502;10.722;2022-11-13T10:29:09;5.90;99.90
14252;DHT22;7210;51.502;10.722;2022-11-13T10:31:58;5.90;99.90
14252;DHT22;7210;51.502;10.722;2022-11-13T10:34:47;5.90;99.90
14252;DHT22;7210;51.502;10.722;2022-11-13T10:37:51;5.80;99.90
14252;DHT22;7210;51.502;10.722;2022-11-13T10:40:45;5.90;99.90
14252;DHT22;7210;51.502;10.722;2022-11-13T10:43:31;6.00;99.90
14252;DHT22;7210;51.502;10.722;2022-11-13T10:46:22;6.00;99.90
14252;DHT22;7210;51.502;10.722;2022-11-13T10:49:15;6.10;99.90
14252;DHT22;7210;51.502;10.722;2022-11-13T10:52:11;6.30;99.90
14252;DHT22;7210;51.502;10.722;2022-11-13T10:55:16;6.30;99.90
14252;DHT22;7210;51.502;10.722;2022-11-13T10:58:12;6.40;99.90
14252;DHT22;7210;51.502;10.722;2022-11-13T11:01:00;6.50;99.90
14252;DHT22;7210;51.502;10.722;2022-11-13T11:03:49;6.60;99.90
14252;DHT22;7210;51.502;10.722;2022-11-13T11:06:39;6.60;99.90
14252;DHT22;7210;51.502;10.722;2022-11-13T11:09:27;6.60;99.90
14252;DHT22;7210;51.502;10.722;2022-11-13T11:12:22;6.60;99.90
14252;DHT22;7210;51.502;10.722;2022-11-13T11:15:35;6.60;99.90
14252;DHT22;7210;51.502;10.722;2022-11-13T11:18:31;6.70;99.90
14252;DHT22;7210;51.502;10.722;2022-11-13T11:21:25;6.70;99.90
14252;DHT22;7210;51.502;10.722;2022-11-13T11:24:20;6.80;99.90
14252;DHT22;7210;51.502;10.722;2022-11-13T11:27:15;7.00;99.90
14252;DHT22;7210;51.502;10.722;2022-11-13T11:30:14;7.00;99.90
14252;DHT22;7210;51.502;10.722;2022-11-13T11:33:09;7.10;99.90
14252;DHT22;7210;51.502;10.722;2022-11-13T11:36:07;7.10;99.90
14252;DHT22;7210;51.502;10.722;2022-11-13T11:42:21;7.30;99.90
14252;DHT22;7210;51.502;10.722;2022-11-13T11:45:15;7.20;99.90
14252;DHT22;7210;51.502;10.722;2022-11-13T11:48:11;7.10;99.90
14252;DHT22;7210;51.502;10.722;2022-11-13T11:51:07;6.90;99.90
14252;DHT22;7210;51.502;10.722;2022-11-13T11:54:09;6.90;99.90
14252;DHT22;7210;51.502;10.722;2022-11-13T11:57:09;6.90;99.90
14252;DHT22;7210;51.502;10.722;2022-11-13T12:00:04;6.90;99.90
14252;DHT22;7210;51.502;10.722;2022-11-13T12:03:07;6.90;99.90
14252;DHT22;7210;51.502;10.722;2022-11-13T12:06:35;6.80;99.90
14252;DHT22;7210;51.502;10.722;2022-11-13T12:09:52;6.70;99.90
14252;DHT22;7210;51.502;10.722;2022-11-13T12:12:56;6.60;99.90
14252;DHT22;7210;51.502;10.722;2022-11-13T12:15:57;6.30;99.90
14252;DHT22;7210;51.502;10.722;2022-11-13T12:18:56;6.20;99.90
14252;DHT22;7210;51.502;10.722;2022-11-13T12:21:55;5.90;99.90
14252;DHT22;7210;51.502;10.722;2022-11-13T12:25:06;5.80;99.90
14252;DHT22;7210;51.502;10.722;2022-11-13T12:28:12;5.70;99.90
14252;DHT22;7210;51.502;10.722;2022-11-13T12:31:12;5.60;99.90
14252;DHT22;7210;51.502;10.722;2022-11-13T12:34:29;5.60;99.90
14252;DHT22;7210;51.502;10.722;2022-11-13T12:37:23;5.60;99.90
14252;DHT22;7210;51.502;10.722;2022-11-13T12:40:27;5.60;99.90
14252;DHT22;7210;51.502;10.722;2022-11-13T12:43:33;5.50;99.90
14252;DHT22;7210;51.502;10.722;2022-11-13T12:46:33;5.60;99.90
14252;DHT22;7210;51.502;10.722;2022-11-13T12:49:30;5.70;99.90
14252;DHT22;7210;51.502;10.722;2022-11-13T12:52:21;5.80;99.90
14252;DHT22;7210;51.502;10.722;2022-11-13T12:55:35;5.80;99.90
14252;DHT22;7210;51.502;10.722;2022-11-13T12:58:26;5.80;99.90
14252;DHT22;7210;51.502;10.722;2022-11-13T13:01:17;5.70;99.90
14252;DHT22;7210;51.502;10.722;2022-11-13T13:04:46;5.80;99.90
14252;DHT22;7210;51.502;10.722;2022-11-13T13:11:25;5.50;99.90
14252;DHT22;7210;51.502;10.722;2022-11-13T13:18:04;5.20;99.90
14252;DHT22;7210;51.502;10.722;2022-11-13T13:21:04;5.00;99.90
14252;DHT22;7210;51.502;10.722;2022-11-13T13:23:52;4.90;99.90
14252;DHT22;7210;51.502;10.722;2022-11-13T13:26:44;4.70;99.90
14252;DHT22;7210;51.502;10.722;2022-11-13T13:29:40;4.70;99.90
14252;DHT22;7210;51.502;10.722;2022-11-13T13:32:33;4.60;99.90
14252;DHT22;7210;51.502;10.722;2022-11-13T13:35:30;4.60;99.90
14252;DHT22;7210;51.502;10.722;2022-11-13T13:38:27;4.50;99.90
14252;DHT22;7210;51.502;10.722;2022-11-13T13:41:36;4.60;99.90
14252;DHT22;7210;51.502;10.722;2022-11-13T13:44:43;4.70;99.90
14252;DHT22;7210;51.502;10.722;2022-11-13T13:47:43;4.80;99.90
14252;DHT22;7210;51.502;10.722;2022-11-13T13:50:33;4.80;99.90
14252;DHT22;7210;51.502;10.722;2022-11-13T13:53:30;4.80;99.90
14252;DHT22;7210;51.502;10.722;2022-11-13T13:56:20;4.70;99.90
14252;DHT22;7210;51.502;10.722;2022-11-13T13:59:13;4.60;99.90
14252;DHT22;7210;51.502;10.722;2022-11-13T14:02:12;4.60;99.90
14252;DHT22;7210;51.502;10.722;2022-11-13T14:04:59;4.50;99.90
14252;DHT22;7210;51.502;10.722;2022-11-13T14:07:51;4.40;99.90
14252;DHT22;7210;51.502;10.722;2022-11-13T14:10:37;4.40;99.90
14252;DHT22;7210;51.502;10.722;2022-11-13T14:13:24;4.40;99.90
14252;DHT22;7210;51.502;10.722;2022-11-13T14:16:15;4.40;99.90
14252;DHT22;7210;51.502;10.722;2022-11-13T14:19:05;4.40;99.90
14252;DHT22;7210;51.502;10.722;2022-11-13T14:21:53;4.40;99.90
14252;DHT22;7210;51.502;10.722;2022-11-13T14:24:45;4.30;99.90
14252;DHT22;7210;51.502;10.722;2022-11-13T14:27:34;4.40;99.90
14252;DHT22;7210;51.502;10.722;2022-11-13T14:30:22;4.30;99.90
14252;DHT22;7210;51.502;10.722;2022-11-13T14:33:20;4.20;99.90
14252;DHT22;7210;51.502;10.722;2022-11-13T14:36:09;4.20;99.90
14252;DHT22;7210;51.502;10.722;2022-11-13T14:38:58;4.30;99.90
14252;DHT22;7210;51.502;10.722;2022-11-13T14:41:47;4.20;99.90
14252;DHT22;7210;51.502;10.722;2022-11-13T14:44:39;4.10;99.90
14252;DHT22;7210;51.502;10.722;2022-11-13T14:47:28;4.10;99.90
14252;DHT22;7210;51.502;10.722;2022-11-13T14:50:22;4.10;99.90
14252;DHT22;7210;51.502;10.722;2022-11-13T14:53:25;4.10;99.90
14252;DHT22;7210;51.502;10.722;2022-11-13T14:56:13;4.10;99.90
14252;DHT22;7210;51.502;10.722;2022-11-13T14:59:13;4.00;99.90
14252;DHT22;7210;51.502;10.722;2022-11-13T15:02:10;4.00;99.90
14252;DHT22;7210;51.502;10.722;2022-11-13T15:04:56;4.10;99.90
14252;DHT22;7210;51.502;10.722;2022-11-13T15:07:45;4.10;99.90
14252;DHT22;7210;51.502;10.722;2022-11-13T15:10:32;4.00;99.90
14252;DHT22;7210;51.502;10.722;2022-11-13T15:13:18;4.00;99.90
14252;DHT22;7210;51.502;10.722;2022-11-13T15:16:05;4.10;99.90
14252;DHT22;7210;51.502;10.722;2022-11-13T15:18:54;4.10;99.90
14252;DHT22;7210;51.502;10.722;2022-11-13T15:21:46;4.00;99.90
14252;DHT22;7210;51.502;10.722;2022-11-13T15:24:33;4.00;99.90
14252;DHT22;7210;51.502;10.722;2022-11-13T15:27:22;4.10;99.90
14252;DHT22;7210;51.502;10.722;2022-11-13T15:30:15;4.00;99.90
14252;DHT22;7210;51.502;10.722;2022-11-13T15:33:04;4.10;99.90
14252;DHT22;7210;51.502;10.722;2022-11-13T15:35:57;4.00;99.90
14252;DHT22;7210;51.502;10.722;2022-11-13T15:38:43;4.00;99.90
14252;DHT22;7210;51.502;10.722;2022-11-13T15:41:34;4.00;99.90
14252;DHT22;7210;51.502;10.722;2022-11-13T15:44:22;4.00;99.90
14252;DHT22;7210;51.502;10.722;2022-11-13T15:47:24;4.00;99.90
14252;DHT22;7210;51.502;10.722;2022-11-13T15:50:11;4.00;99.90
14252;DHT22;7210;51.502;10.722;2022-11-13T15:52:57;4.00;99.90
14252;DHT22;7210;51.502;10.722;2022-11-13T15:55:45;4.10;99.90
14252;DHT22;7210;51.502;10.722;2022-11-13T15:58:31;4.10;99.90
14252;DHT22;7210;51.502;10.722;2022-11-13T16:01:18;4.10;99.90
14252;DHT22;7210;51.502;10.722;2022-11-13T16:04:05;4.10;99.90
14252;DHT22;7210;51.502;10.722;2022-11-13T16:06:50;4.10;99.90
14252;DHT22;7210;51.502;10.722;2022-11-13T16:09:37;4.10;99.90
14252;DHT22;7210;51.502;10.722;2022-11-13T16:12:27;4.10;99.90
14252;DHT22;7210;51.502;10.722;2022-11-13T16:15:13;4.10;99.90
14252;DHT22;7210;51.502;10.722;2022-11-13T16:18:12;4.20;99.90
14252;DHT22;7210;51.502;10.722;2022-11-13T16:21:10;4.20;99.90
14252;DHT22;7210;51.502;10.722;2022-11-13T16:23:57;4.10;99.90
14252;DHT22;7210;51.502;10.722;2022-11-13T16:26:48;4.20;99.90
14252;DHT22;7210;51.502;10.722;2022-11-13T16:29:39;4.20;99.90
14252;DHT22;7210;51.502;10.722;2022-11-13T16:32:24;4.20;99.90
14252;DHT22;7210;51.502;10.722;2022-11-13T16:35:13;4.20;99.90
14252;DHT22;7210;51.502;10.722;2022-11-13T16:38:09;4.20;99.90
14252;DHT22;7210;51.502;10.722;2022-11-13T16:40:57;4.20;99.90
14252;DHT22;7210;51.502;10.722;2022-11-13T16:43:44;4.10;99.90
14252;DHT22;7210;51.502;10.722;2022-11-13T16:46:40;4.10;99.90
14252;DHT22;7210;51.502;10.722;2022-11-13T16:49:33;4.10;99.90
14252;DHT22;7210;51.502;10.722;2022-11-13T16:52:21;4.00;99.90
14252;DHT22;7210;51.502;10.722;2022-11-13T16:55:10;4.00;99.90
14252;DHT22;7210;51.502;10.722;2022-11-13T16:57:56;4.10;99.90
14252;DHT22;7210;51.502;10.722;2022-11-13T17:00:41;4.00;99.90
14252;DHT22;7210;51.502;10.722;2022-11-13T17:03:27;4.00;99.90
14252;DHT22;7210;51.502;10.722;2022-11-13T17:06:19;4.00;99.90
14252;DHT22;7210;51.502;10.722;2022-11-13T17:09:08;4.00;99.90
14252;DHT22;7210;51.502;10.722;2022-11-13T17:11:56;4.00;99.90
14252;DHT22;7210;51.502;10.722;2022-11-13T17:14:51;4.00;99.90
14252;DHT22;7210;51.502;10.722;2022-11-13T17:17:37;4.10;99.90
14252;DHT22;7210;51.502;10.722;2022-11-13T17:20:22;4.10;99.90
14252;DHT22;7210;51.502;10.722;2022-11-13T17:23:12;4.10;99.90
14252;DHT22;7210;51.502;10.722;2022-11-13T17:26:05;4.10;99.90
14252;DHT22;7210;51.502;10.722;2022-11-13T17:28:51;4.10;99.90
14252;DHT22;7210;51.502;10.722;2022-11-13T17:31:39;4.20;99.90
14252;DHT22;7210;51.502;10.722;2022-11-13T17:34:25;4.10;99.90
14252;DHT22;7210;51.502;10.722;2022-11-13T17:37:15;4.10;99.90
14252;DHT22;7210;51.502;10.722;2022-11-13T17:40:01;4.10;99.90
14252;DHT22;7210;51.502;10.722;2022-11-13T17:42:48;4.20;99.90
14252;DHT22;7210;51.502;10.722;2022-11-13T17:45:35;4.10;99.90
14252;DHT22;7210;51.502;10.722;2022-11-13T17:48:33;4.10;99.90
14252;DHT22;7210;51.502;10.722;2022-11-13T17:51:20;4.10;99.90
14252;DHT22;7210;51.502;10.722;2022-11-13T17:54:06;4.00;99.90
14252;DHT22;7210;51.502;10.722;2022-11-13T17:57:09;4.00;99.90
14252;DHT22;7210;51.502;10.722;2022-11-13T17:59:57;4.00;99.90
14252;DHT22;7210;51.502;10.722;2022-11-13T18:02:45;4.00;99.90
14252;DHT22;7210;51.502;10.722;2022-11-13T18:05:31;3.90;99.90
14252;DHT22;7210;51.502;10.722;2022-11-13T18:08:20;3.80;99.90
14252;DHT22;7210;51.502;10.722;2022-11-13T18:11:06;3.70;99.90
14252;DHT22;7210;51.502;10.722;2022-11-13T18:14:09;3.70;99.90
14252;DHT22;7210;51.502;10.722;2022-11-13T18:16:58;3.60;99.90
14252;DHT22;7210;51.502;10.722;2022-11-13T18:19:44;3.50;99.90
14252;DHT22;7210;51.502;10.722;2022-11-13T18:22:33;3.40;99.90
14252;DHT22;7210;51.502;10.722;2022-11-13T18:25:19;3.40;99.90
14252;DHT22;7210;51.502;10.722;2022-11-13T18:28:05;3.40;99.90
14252;DHT22;7210;51.502;10.722;2022-11-13T18:30:51;3.30;99.90
14252;DHT22;7210;51.502;10.722;2022-11-13T18:33:39;3.30;99.90
14252;DHT22;7210;51.502;10.722;2022-11-13T18:36:25;3.30;99.90
14252;DHT22;7210;51.502;10.722;2022-11-13T18:39:11;3.30;99.90
14252;DHT22;7210;51.502;10.722;2022-11-13T18:41:57;3.20;99.90
14252;DHT22;7210;51.502;10.722;2022-11-13T18:44:43;3.20;99.90
14252;DHT22;7210;51.502;10.722;2022-11-13T18:47:29;3.10;99.90
14252;DHT22;7210;51.502;10.722;2022-11-13T18:50:16;3.00;99.90